Hauptseite
METAR-TAF:

METAR-TAF

Flughäfen :

Flughafen Lahr

Lahr, Deutschland

Breite: 48-22-09N, Länge: 007-49-40E, Höhe: 156 m

Beobachtung

Neuester Wetterbericht von vor 21 Stunden und 35 Minuten, um 17:50 UTC
Wind 7 kt aus Nord/Nordwest, variierte zwischen Nordwest und Nord
Temperatur 23°C
Luftfeuchtigkeit 53%
Luftdruck 1016 hPa
Sichtweite 10 km oder mehr
keine Wolken unter 1500 m und keine Kumulonimbus oder Gewitterwolken

METAR: EDTL 101750Z 33007KT 310V010 CAVOK 23/13 Q1016

Zeit: 17:25 (15:25 UTC)

Prognose

Neuester Wetterbericht von vor 22 Stunden und 25 Minuten, um 17:00 UTC
Gültige Prognose vom 10 um 18 UTC bis 10 um 24 UTC
Wind 7 kt aus Nord
Sichtweite 10 km oder mehr
Aufgelockert bewölkt in der Höhe von 4500 ft
Wahrscheinlichkeit 30% :
Zeitweise
vom 10 um 20 UTC bis 10 um 24 UTC
Regen

TAF: EDTL 101700Z 1018/1024 35007KT 9999 SCT045 PROB30 TEMPO 1020/1024 RA

Wetterbeobachtungen und Prognosen von mehr als 4000 Flughäfen (METAR und TAF Bericht).

Die verfügbaren Stationen werden durch gelbe und rote Markierungen auf der Karte dargestellt.

Führen Sie die Maus auf sie, um den Namen der Station zu sehen.

Darauf klicken, um die Beobachtung von Wetterbeobachtungen und Prognosen zu sehen.

Um die Karte zu ändern : klicken Sie auf den grünen Tasten mit einem schwarzen Kreuz Zum Vergrößern, auf den grünen Button mit einem Gedankenstrich zu verkleinern, oder auf die grünen Pfeile für benachbarte Karten.


METAR-TAF: